Freeman, Missouri
Current Conditions -  °F | °C
As of 3:53 AM on Thursday 29 Jan 2015 (Local Time) from KOJC Reporting Station
Overcast Overcast  
Wind Chill: 40°   Ceiling: 2000
Heat Index: 46°   Visibility: 8mi
Dew Point: 37°   Wind: 15mph
Humidity: 71%   Direction: 340°NNW
Pressure: 30.03"   Gusts: 32mph
Location:  38.62°N, 94.51°W
Report Text: KOJC 290953Z AUTO 34013G28KT 8SM OVC020 08/03 A3003 RMK AO2 PK WND 32028/0945 SLP166 T00780028
Loading
Personal Weather Stations






























Interactive Weather Map New forecast layout! Learn more

10-Day Weather Forecast

Advertisements
Track Severe Weather on mobile